createdAt,value
2023-01-17T00:02:20.271Z,94112.38
2023-01-17T00:05:07.757Z,94116.00
2023-01-17T00:07:53.589Z,94114.31
2023-01-17T00:10:24.736Z,94126.94
2023-01-17T00:12:56.175Z,94129.66
2023-01-17T00:15:25.922Z,94123.22
2023-01-17T00:17:54.958Z,94133.47
2023-01-17T00:20:44.379Z,94133.16
2023-01-17T00:23:35.745Z,94134.09
2023-01-17T00:26:05.338Z,94141.06
2023-01-17T00:28:36.199Z,94138.13
2023-01-17T00:31:05.276Z,94142.41
2023-01-17T00:33:33.405Z,94142.53
2023-01-17T00:36:04.140Z,94137.94
2023-01-17T00:38:34.368Z,94140.53
2023-01-17T00:41:03.296Z,94140.28
2023-01-17T00:43:50.296Z,94148.50
2023-01-17T00:46:36.865Z,94150.50
2023-01-17T00:49:23.462Z,94161.97
2023-01-17T00:52:10.440Z,94157.34
2023-01-17T00:54:56.470Z,94166.44
2023-01-17T00:57:42.762Z,94166.19
2023-01-17T01:00:30.019Z,94157.91
2023-01-17T01:03:16.093Z,94165.75
2023-01-17T01:06:02.131Z,94173.72
2023-01-17T01:08:49.974Z,94176.31
2023-01-17T01:11:38.739Z,94182.59
2023-01-17T01:14:26.389Z,94188.56
2023-01-17T01:17:12.834Z,94179.25
2023-01-17T01:19:58.839Z,94182.06
2023-01-17T01:22:44.793Z,94190.00
2023-01-17T01:25:31.982Z,94192.69
2023-01-17T01:28:23.395Z,94201.13
2023-01-17T01:31:09.409Z,94195.84
2023-01-17T01:33:38.152Z,94190.25
2023-01-17T01:36:09.665Z,94197.88
2023-01-17T01:38:38.339Z,94199.00
2023-01-17T01:41:08.281Z,94201.00
2023-01-17T01:43:45.563Z,94204.25
2023-01-17T01:46:19.184Z,94204.25
2023-01-17T01:48:56.025Z,94211.78
2023-01-17T01:51:31.097Z,94215.94
2023-01-17T01:54:06.716Z,94226.94
2023-01-17T01:56:37.457Z,94222.13
2023-01-17T01:59:11.855Z,94220.53
2023-01-17T02:01:40.499Z,94228.28
2023-01-17T02:04:10.878Z,94216.63
2023-01-17T02:06:43.018Z,94215.72
2023-01-17T02:09:16.153Z,94216.38
2023-01-17T02:11:49.894Z,94217.63
2023-01-17T02:14:20.555Z,94219.41
2023-01-17T02:17:20.925Z,94212.91
2023-01-17T02:20:30.947Z,94214.25
2023-01-17T02:23:50.506Z,94213.78
2023-01-17T02:26:48.903Z,94226.16
2023-01-17T02:30:04.666Z,94219.28
2023-01-17T02:32:48.595Z,94210.09
2023-01-17T02:35:30.078Z,94213.25
2023-01-17T02:38:12.399Z,94220.22
2023-01-17T02:40:45.875Z,94216.16
2023-01-17T02:43:17.959Z,94218.63
2023-01-17T02:45:46.711Z,94218.16
2023-01-17T02:48:22.901Z,94217.50
2023-01-17T02:51:38.879Z,94219.81
2023-01-17T02:54:33.265Z,94225.97
2023-01-17T02:57:23.343Z,94230.69
2023-01-17T03:00:00.624Z,94236.56
2023-01-17T03:02:43.410Z,94245.97
2023-01-17T03:05:21.863Z,94232.66
2023-01-17T03:07:52.223Z,94237.78
2023-01-17T03:10:22.034Z,94243.16
2023-01-17T03:12:51.220Z,94244.31
2023-01-17T03:15:19.737Z,94253.94
2023-01-17T03:17:52.990Z,94251.69
2023-01-17T03:20:22.846Z,94252.59
2023-01-17T03:22:51.423Z,94251.28
2023-01-17T03:25:20.222Z,94261.56
2023-01-17T03:27:48.954Z,94259.34
2023-01-17T03:30:18.060Z,94250.94
2023-01-17T03:32:46.594Z,94259.91
2023-01-17T03:35:15.518Z,94262.28
2023-01-17T03:37:45.072Z,94260.03
2023-01-17T03:40:13.935Z,94261.72
2023-01-17T03:42:42.793Z,94264.88
2023-01-17T03:45:12.306Z,94260.94
2023-01-17T03:47:40.896Z,94264.63
2023-01-17T03:50:11.231Z,94260.50
2023-01-17T03:52:39.843Z,94257.22
2023-01-17T03:55:10.939Z,94259.59
2023-01-17T03:57:39.534Z,94263.88
2023-01-17T04:00:09.533Z,94259.25
2023-01-17T04:02:38.192Z,94264.19
2023-01-17T04:05:07.156Z,94260.03
2023-01-17T04:07:35.792Z,94270.03
2023-01-17T04:10:04.998Z,94265.56
2023-01-17T04:12:34.671Z,94274.19
2023-01-17T04:15:03.225Z,94266.78
2023-01-17T04:17:31.913Z,94269.25
2023-01-17T04:20:00.477Z,94264.31
2023-01-17T04:22:28.770Z,94270.25
2023-01-17T04:24:57.385Z,94262.94
2023-01-17T04:27:25.956Z,94259.91
2023-01-17T04:29:55.526Z,94259.81
2023-01-17T04:32:24.141Z,94264.09
2023-01-17T04:34:52.756Z,94267.31
2023-01-17T04:37:21.571Z,94269.88
2023-01-17T04:39:50.244Z,94274.16
2023-01-17T04:42:18.579Z,94281.78
2023-01-17T04:44:47.217Z,94291.28
2023-01-17T04:47:16.832Z,94294.00
2023-01-17T04:49:45.405Z,94282.44
2023-01-17T04:52:15.051Z,94285.78
2023-01-17T04:54:43.323Z,94283.75
2023-01-17T04:57:12.073Z,94287.78
2023-01-17T04:59:40.625Z,94285.75
2023-01-17T05:02:09.164Z,94277.22
2023-01-17T05:04:39.735Z,94282.94
2023-01-17T05:07:08.376Z,94284.25
2023-01-17T05:09:36.694Z,94295.22
2023-01-17T05:12:05.532Z,94293.72
2023-01-17T05:14:34.540Z,94299.38
2023-01-17T05:17:04.078Z,94304.56
2023-01-17T05:19:32.458Z,94304.63
2023-01-17T05:22:04.311Z,94307.03
2023-01-17T05:24:32.969Z,94305.59
2023-01-17T05:27:03.352Z,94310.66
2023-01-17T05:29:32.040Z,94308.00
2023-01-17T05:32:00.666Z,94303.22
2023-01-17T05:34:29.552Z,94320.94
2023-01-17T05:36:58.344Z,94317.38
2023-01-17T05:39:27.999Z,94315.31
2023-01-17T05:41:56.763Z,94311.53
2023-01-17T05:44:25.065Z,94318.97
2023-01-17T05:46:53.348Z,94314.97
2023-01-17T05:49:21.929Z,94322.84
2023-01-17T05:51:50.703Z,94316.84
2023-01-17T05:54:19.402Z,94322.22
2023-01-17T05:56:49.020Z,94317.63
2023-01-17T05:59:25.609Z,94317.94
2023-01-17T06:02:04.723Z,94311.47
2023-01-17T06:04:33.419Z,94319.97
2023-01-17T06:07:01.987Z,94331.63
2023-01-17T06:09:30.843Z,94330.69
2023-01-17T06:12:00.415Z,94335.84
2023-01-17T06:14:29.027Z,94329.06
2023-01-17T06:16:57.675Z,94317.53
2023-01-17T06:19:26.315Z,94330.00
2023-01-17T06:21:54.565Z,94328.88
2023-01-17T06:24:23.177Z,94320.72
2023-01-17T06:26:51.877Z,94329.28
2023-01-17T06:29:21.790Z,94332.66
2023-01-17T06:31:50.087Z,94337.13
2023-01-17T06:34:18.613Z,94330.94
2023-01-17T06:36:47.178Z,94322.75
2023-01-17T06:39:15.807Z,94330.56
2023-01-17T06:41:44.396Z,94324.91
2023-01-17T06:44:13.195Z,94329.00
2023-01-17T06:46:43.428Z,94329.03
2023-01-17T06:49:12.084Z,94328.91
2023-01-17T06:51:43.452Z,94325.66
2023-01-17T06:54:12.843Z,94339.84
2023-01-17T06:56:41.464Z,94337.94
2023-01-17T06:59:10.054Z,94333.53
2023-01-17T07:01:38.722Z,94336.25
2023-01-17T07:04:08.692Z,94339.59
2023-01-17T07:06:37.583Z,94333.28
2023-01-17T07:09:06.473Z,94324.75
2023-01-17T07:11:35.066Z,94328.72
2023-01-17T07:14:03.820Z,94322.88
2023-01-17T07:16:32.512Z,94329.34
2023-01-17T07:19:01.125Z,94330.75
2023-01-17T07:21:30.722Z,94321.91
2023-01-17T07:23:59.346Z,94329.50
2023-01-17T07:26:27.922Z,94329.97
2023-01-17T07:28:56.626Z,94330.75
2023-01-17T07:31:25.379Z,94330.28
2023-01-17T07:33:54.118Z,94316.25
2023-01-17T07:36:22.710Z,94311.97
2023-01-17T07:38:52.888Z,94308.47
2023-01-17T07:41:21.315Z,94314.91
2023-01-17T07:43:49.931Z,94308.41
2023-01-17T07:46:18.934Z,94314.16
2023-01-17T07:48:47.577Z,94323.88
2023-01-17T07:51:16.206Z,94326.94
2023-01-17T07:53:44.900Z,94323.09
2023-01-17T07:56:14.596Z,94325.91
2023-01-17T07:58:43.054Z,94329.09
2023-01-17T08:01:13.900Z,94330.47
2023-01-17T08:03:43.273Z,94326.91
2023-01-17T08:06:19.758Z,94320.22
2023-01-17T08:08:48.838Z,94318.38
2023-01-17T08:11:18.567Z,94314.31
2023-01-17T08:13:48.142Z,94310.03
2023-01-17T08:16:16.859Z,94299.69
2023-01-17T08:18:45.495Z,94300.56
2023-01-17T08:21:16.867Z,94296.59
2023-01-17T08:23:48.753Z,94294.69
2023-01-17T08:26:22.484Z,94303.19
2023-01-17T08:28:56.898Z,94302.41
2023-01-17T08:31:26.009Z,94300.69
2023-01-17T08:33:54.429Z,94296.22
2023-01-17T08:36:22.686Z,94294.66
2023-01-17T08:38:52.772Z,94297.97
2023-01-17T08:41:24.035Z,94283.75
2023-01-17T08:43:53.140Z,94277.13
2023-01-17T08:46:21.492Z,94291.16
2023-01-17T08:48:53.815Z,94285.47
2023-01-17T08:51:22.466Z,94285.81
2023-01-17T08:53:51.441Z,94284.88
2023-01-17T08:56:20.134Z,94287.16
2023-01-17T08:58:49.768Z,94291.75
2023-01-17T09:01:18.102Z,94282.53
2023-01-17T09:03:46.839Z,94291.19
2023-01-17T09:06:17.518Z,94288.72
2023-01-17T09:08:46.965Z,94292.09
2023-01-17T09:11:18.261Z,94295.22
2023-01-17T09:13:46.921Z,94295.13
2023-01-17T09:16:16.635Z,94301.19
2023-01-17T09:18:45.218Z,94305.00
2023-01-17T09:21:15.598Z,94309.63
2023-01-17T09:23:44.904Z,94309.59
2023-01-17T09:26:20.439Z,94314.06
2023-01-17T09:28:49.072Z,94312.59
2023-01-17T09:31:20.722Z,94326.69
2023-01-17T09:33:49.511Z,94324.75
2023-01-17T09:36:18.438Z,94327.44
2023-01-17T09:38:47.650Z,94328.06
2023-01-17T09:41:27.681Z,94324.34
2023-01-17T09:44:04.187Z,94326.22
2023-01-17T09:46:40.053Z,94325.66
2023-01-17T09:49:12.995Z,94325.44
2023-01-17T09:51:42.687Z,94311.50
2023-01-17T09:54:23.358Z,94310.38
2023-01-17T09:57:04.343Z,94298.34
2023-01-17T10:00:02.433Z,94284.59
2023-01-17T10:03:06.134Z,94280.69
2023-01-17T10:05:54.104Z,94278.97
2023-01-17T10:08:42.774Z,94278.88
2023-01-17T10:11:36.263Z,94270.88
2023-01-17T10:14:37.524Z,94268.63
2023-01-17T10:17:17.870Z,94259.56
2023-01-17T10:20:09.079Z,94240.56
2023-01-17T10:23:09.162Z,94239.75
2023-01-17T10:25:47.494Z,94233.38
2023-01-17T10:28:21.497Z,94229.75
2023-01-17T10:30:53.046Z,94223.19
2023-01-17T10:33:23.269Z,94208.16
2023-01-17T10:35:57.841Z,94207.47
2023-01-17T10:38:33.535Z,94199.22
2023-01-17T10:41:09.538Z,94194.41
2023-01-17T10:43:50.429Z,94196.25
2023-01-17T10:46:28.445Z,94190.16
2023-01-17T10:48:58.492Z,94189.38
2023-01-17T10:51:59.962Z,94185.63
2023-01-17T10:54:52.021Z,94193.72
2023-01-17T10:57:25.135Z,94191.38
2023-01-17T10:59:58.909Z,94186.84
2023-01-17T11:02:31.342Z,94191.97
2023-01-17T11:05:05.581Z,94183.47
2023-01-17T11:07:35.536Z,94194.22
2023-01-17T11:10:04.212Z,94188.06
2023-01-17T11:12:36.109Z,94185.44
2023-01-17T11:15:19.841Z,94176.84
2023-01-17T11:17:53.256Z,94171.25
2023-01-17T11:20:28.022Z,94167.25
2023-01-17T11:23:13.986Z,94155.25
2023-01-17T11:25:51.002Z,94163.16
2023-01-17T11:28:26.266Z,94152.28
2023-01-17T11:30:58.285Z,94156.94
2023-01-17T11:33:45.112Z,94152.50
2023-01-17T11:36:22.834Z,94139.72
2023-01-17T11:39:02.932Z,94138.69
2023-01-17T11:41:37.413Z,94124.41
2023-01-17T11:44:24.092Z,94122.38
2023-01-17T11:47:19.187Z,94125.63
2023-01-17T11:49:49.651Z,94122.13
2023-01-17T11:52:27.291Z,94116.97
2023-01-17T11:54:57.326Z,94114.88
2023-01-17T11:57:28.899Z,94114.28
2023-01-17T12:00:11.675Z,94118.31
2023-01-17T12:03:18.920Z,94118.22
2023-01-17T12:06:02.641Z,94112.69
2023-01-17T12:08:56.432Z,94105.41
2023-01-17T12:11:37.216Z,94099.44
2023-01-17T12:14:18.765Z,94102.41
2023-01-17T12:17:11.556Z,94101.81
2023-01-17T12:20:01.102Z,94091.94
2023-01-17T12:23:05.641Z,94092.09
2023-01-17T12:26:11.031Z,94095.53
2023-01-17T12:29:44.713Z,94087.72
2023-01-17T12:32:41.643Z,94093.41
2023-01-17T12:35:16.360Z,94089.31
2023-01-17T12:37:52.656Z,94082.00
2023-01-17T12:40:33.944Z,94071.47
2023-01-17T12:43:13.250Z,94061.22
2023-01-17T12:45:45.710Z,94060.25
2023-01-17T12:48:18.405Z,94050.91
2023-01-17T12:50:55.669Z,94056.00
2023-01-17T12:53:36.125Z,94042.16
2023-01-17T12:56:15.688Z,94041.13
2023-01-17T12:58:49.291Z,94043.63
2023-01-17T13:01:29.396Z,94038.81
2023-01-17T13:04:17.795Z,94033.06
2023-01-17T13:07:06.420Z,94029.94
2023-01-17T13:09:42.601Z,94025.75
2023-01-17T13:12:16.622Z,94014.97
2023-01-17T13:14:47.935Z,94015.66
2023-01-17T13:17:35.997Z,94015.09
2023-01-17T13:20:14.194Z,94017.88
2023-01-17T13:22:44.358Z,94012.03
2023-01-17T13:25:29.818Z,94007.34
2023-01-17T13:28:17.451Z,93999.59
2023-01-17T13:31:22.672Z,94001.28
2023-01-17T13:34:39.319Z,93997.09
2023-01-17T13:37:47.384Z,93994.53
2023-01-17T13:40:37.503Z,93987.81
2023-01-17T13:43:14.476Z,93987.59
2023-01-17T13:45:53.049Z,93988.22
2023-01-17T13:48:33.564Z,93981.63
2023-01-17T13:51:06.458Z,93981.53
2023-01-17T13:53:59.464Z,93974.69
2023-01-17T13:56:36.668Z,93974.81
2023-01-17T13:59:31.432Z,93970.41
2023-01-17T14:02:00.050Z,93969.19
2023-01-17T14:05:09.256Z,93966.75
2023-01-17T14:07:45.760Z,93968.66
2023-01-17T14:10:31.753Z,93962.75
2023-01-17T14:13:00.775Z,93962.63
2023-01-17T14:15:33.136Z,93968.75
2023-01-17T14:18:03.726Z,93961.34
2023-01-17T14:20:52.204Z,93957.69
2023-01-17T14:23:52.682Z,93942.25
2023-01-17T14:26:41.290Z,93928.09
2023-01-17T14:29:54.687Z,93926.25
2023-01-17T14:32:28.283Z,93920.22
2023-01-17T14:34:57.336Z,93912.53
2023-01-17T14:37:39.401Z,93904.13
2023-01-17T14:40:21.541Z,93903.69
2023-01-17T14:42:59.966Z,93899.25
2023-01-17T14:45:31.183Z,93882.78
2023-01-17T14:48:02.202Z,93890.06
2023-01-17T14:50:37.311Z,93887.88
2023-01-17T14:53:18.582Z,93891.88
2023-01-17T14:56:02.000Z,93884.50
2023-01-17T14:58:32.197Z,93888.19
2023-01-17T15:01:03.828Z,93897.94
2023-01-17T15:03:42.764Z,93897.25
2023-01-17T15:06:15.025Z,93899.06
2023-01-17T15:08:43.791Z,93904.72
2023-01-17T15:11:21.959Z,93903.56
2023-01-17T15:13:54.191Z,93904.78
2023-01-17T15:16:26.901Z,93897.38
2023-01-17T15:18:57.214Z,93897.84
2023-01-17T15:21:29.725Z,93893.75
2023-01-17T15:24:01.405Z,93893.66
2023-01-17T15:26:35.544Z,93881.50
2023-01-17T15:29:08.278Z,93876.03
2023-01-17T15:31:44.095Z,93881.88
2023-01-17T15:34:25.898Z,93880.84
2023-01-17T15:36:56.970Z,93874.91
2023-01-17T15:39:30.349Z,93866.41
2023-01-17T15:42:03.975Z,93870.94
2023-01-17T15:44:47.492Z,93872.47
2023-01-17T15:47:30.146Z,93864.88
2023-01-17T15:49:59.674Z,93868.56
2023-01-17T15:52:29.133Z,93868.56
2023-01-17T15:55:12.508Z,93867.00
2023-01-17T15:57:47.542Z,93868.56
2023-01-17T16:00:26.363Z,93871.56
2023-01-17T16:02:57.781Z,93867.84
2023-01-17T16:05:44.690Z,93860.44
2023-01-17T16:08:29.777Z,93864.88
2023-01-17T16:11:02.311Z,93855.13
2023-01-17T16:13:35.703Z,93854.94
2023-01-17T16:16:22.392Z,93854.94
2023-01-17T16:18:58.740Z,93842.13
2023-01-17T16:21:29.435Z,93857.59
2023-01-17T16:23:59.275Z,93844.47
2023-01-17T16:26:29.512Z,93843.25
2023-01-17T16:28:59.190Z,93850.19
2023-01-17T16:31:27.596Z,93850.41
2023-01-17T16:33:56.078Z,93847.97
2023-01-17T16:36:24.715Z,93853.00
2023-01-17T16:38:53.695Z,93858.25
2023-01-17T16:41:22.928Z,93856.81
2023-01-17T16:44:02.049Z,93860.75
2023-01-17T16:46:31.142Z,93858.22
2023-01-17T16:49:02.052Z,93858.56
2023-01-17T16:51:30.463Z,93858.69
2023-01-17T16:53:59.512Z,93861.13
2023-01-17T16:56:28.179Z,93856.88
2023-01-17T16:59:12.521Z,93855.09
2023-01-17T17:01:41.713Z,93857.00
2023-01-17T17:04:12.930Z,93851.63
2023-01-17T17:06:41.638Z,93851.19
2023-01-17T17:09:10.220Z,93846.25
2023-01-17T17:11:38.607Z,93848.50
2023-01-17T17:14:07.370Z,93848.03
2023-01-17T17:16:39.034Z,93844.00
2023-01-17T17:19:09.672Z,93847.25
2023-01-17T17:21:38.665Z,93852.50
2023-01-17T17:24:07.690Z,93857.66
2023-01-17T17:26:37.835Z,93856.19
2023-01-17T17:29:10.416Z,93866.63
2023-01-17T17:31:42.956Z,93868.84
2023-01-17T17:34:14.375Z,93878.38
2023-01-17T17:36:43.579Z,93882.19
2023-01-17T17:39:14.802Z,93870.66
2023-01-17T17:41:45.859Z,93875.47
2023-01-17T17:44:14.703Z,93875.03
2023-01-17T17:46:44.832Z,93871.78
2023-01-17T17:49:13.541Z,93870.88
2023-01-17T17:51:42.403Z,93864.63
2023-01-17T17:54:13.735Z,93870.69
2023-01-17T17:56:46.476Z,93886.81
2023-01-17T17:59:19.573Z,93886.81
2023-01-17T18:01:49.644Z,93887.25
2023-01-17T18:04:19.382Z,93887.59
2023-01-17T18:06:48.090Z,93877.16
2023-01-17T18:09:17.220Z,93880.09
2023-01-17T18:11:46.678Z,93889.81
2023-01-17T18:14:17.811Z,93891.84
2023-01-17T18:16:48.049Z,93886.78
2023-01-17T18:19:18.830Z,93888.59
2023-01-17T18:21:48.685Z,93890.16
2023-01-17T18:24:19.056Z,93898.22
2023-01-17T18:26:49.961Z,93905.50
2023-01-17T18:29:20.875Z,93897.78
2023-01-17T18:31:52.166Z,93906.28
2023-01-17T18:34:24.045Z,93904.75
2023-01-17T18:36:53.514Z,93907.66
2023-01-17T18:39:24.655Z,93908.09
2023-01-17T18:41:53.191Z,93910.56
2023-01-17T18:44:22.678Z,93905.88
2023-01-17T18:46:54.750Z,93905.38
2023-01-17T18:49:23.428Z,93909.66
2023-01-17T18:51:52.102Z,93907.63
2023-01-17T18:54:22.118Z,93905.28
2023-01-17T18:56:51.068Z,93904.50
2023-01-17T18:59:20.424Z,93913.00
2023-01-17T19:01:49.549Z,93908.88
2023-01-17T19:04:20.067Z,93910.69
2023-01-17T19:06:49.872Z,93910.78
2023-01-17T19:09:19.464Z,93912.47
2023-01-17T19:11:48.222Z,93913.81
2023-01-17T19:14:16.592Z,93917.06
2023-01-17T19:16:45.500Z,93916.59
2023-01-17T19:19:16.745Z,93918.97
2023-01-17T19:21:46.514Z,93914.34
2023-01-17T19:24:15.374Z,93927.13
2023-01-17T19:26:45.582Z,93929.59
2023-01-17T19:29:15.465Z,93929.50
2023-01-17T19:31:44.213Z,93928.72
2023-01-17T19:34:14.748Z,93927.56
2023-01-17T19:36:44.895Z,93932.94
2023-01-17T19:39:15.535Z,93935.31
2023-01-17T19:41:46.435Z,93936.44
2023-01-17T19:44:16.110Z,93939.25
2023-01-17T19:46:48.755Z,93952.47
2023-01-17T19:49:20.660Z,93953.56
2023-01-17T19:51:50.114Z,93955.59
2023-01-17T19:54:20.379Z,93958.06
2023-01-17T19:56:49.099Z,93955.94
2023-01-17T19:59:20.206Z,93970.94
2023-01-17T20:01:49.156Z,93974.78
2023-01-17T20:04:18.626Z,93982.84
2023-01-17T20:06:47.891Z,93984.06
2023-01-17T20:09:16.559Z,93983.38
2023-01-17T20:11:46.767Z,93983.81
2023-01-17T20:14:16.564Z,93985.16
2023-01-17T20:16:47.562Z,93981.59
2023-01-17T20:19:16.291Z,93989.66
2023-01-17T20:21:44.917Z,93987.09
2023-01-17T20:24:14.847Z,93987.66
2023-01-17T20:26:44.113Z,93990.34
2023-01-17T20:29:16.715Z,93986.75
2023-01-17T20:31:46.982Z,93995.50
2023-01-17T20:34:18.727Z,93993.16
2023-01-17T20:36:47.729Z,93995.25
2023-01-17T20:39:16.937Z,93986.97
2023-01-17T20:41:46.377Z,93988.19
2023-01-17T20:44:18.640Z,93996.06
2023-01-17T20:46:48.186Z,93985.03
2023-01-17T20:49:19.988Z,93994.44
2023-01-17T20:51:49.143Z,93986.47
2023-01-17T20:54:23.442Z,93983.69
2023-01-17T20:56:52.076Z,93980.66
2023-01-17T20:59:23.436Z,93984.13
2023-01-17T21:01:52.472Z,93976.06
2023-01-17T21:04:25.719Z,93976.84
2023-01-17T21:06:55.265Z,93976.84
2023-01-17T21:09:24.343Z,93983.56
2023-01-17T21:11:54.371Z,93980.06
2023-01-17T21:14:24.016Z,93980.72
2023-01-17T21:16:52.719Z,93972.00
2023-01-17T21:19:21.437Z,93980.28
2023-01-17T21:21:50.194Z,93972.53
2023-01-17T21:24:20.120Z,93972.97
2023-01-17T21:26:51.444Z,93981.59
2023-01-17T21:29:20.343Z,93981.28
2023-01-17T21:31:50.292Z,93982.41
2023-01-17T21:34:18.948Z,93986.88
2023-01-17T21:36:47.972Z,93977.59
2023-01-17T21:39:19.814Z,93978.25
2023-01-17T21:41:50.740Z,93968.16
2023-01-17T21:44:21.899Z,93975.69
2023-01-17T21:46:56.012Z,93979.34
2023-01-17T21:49:25.067Z,93981.81
2023-01-17T21:52:10.924Z,93972.25
2023-01-17T21:54:57.309Z,93980.03
2023-01-17T21:57:43.218Z,93980.84
2023-01-17T22:00:15.453Z,93974.22
2023-01-17T22:02:46.168Z,93977.56
2023-01-17T22:05:16.445Z,93978.88
2023-01-17T22:08:06.385Z,93975.19
2023-01-17T22:10:44.513Z,93976.03
2023-01-17T22:13:14.911Z,93983.47
2023-01-17T22:15:43.894Z,93981.97
2023-01-17T22:18:14.553Z,93979.72
2023-01-17T22:20:43.658Z,93979.47
2023-01-17T22:23:12.557Z,93968.94
2023-01-17T22:25:41.216Z,93979.66
2023-01-17T22:28:09.922Z,93971.63
2023-01-17T22:30:38.581Z,93966.91
2023-01-17T22:33:07.294Z,93964.41
2023-01-17T22:35:40.180Z,93973.56
2023-01-17T22:38:08.612Z,93968.19
2023-01-17T22:40:38.252Z,93967.94
2023-01-17T22:43:06.864Z,93967.38
2023-01-17T22:45:35.379Z,93967.78
2023-01-17T22:48:04.143Z,93971.00
2023-01-17T22:50:33.215Z,93974.97
2023-01-17T22:53:03.241Z,93981.41
2023-01-17T22:55:46.735Z,93969.34
2023-01-17T22:58:15.375Z,93969.69
2023-01-17T23:00:43.730Z,93971.44
2023-01-17T23:03:12.481Z,93970.16
2023-01-17T23:05:46.501Z,93966.38
2023-01-17T23:08:16.464Z,93962.94
2023-01-17T23:11:02.587Z,93967.38
2023-01-17T23:13:31.447Z,93961.69
2023-01-17T23:16:22.648Z,93961.09
2023-01-17T23:19:08.698Z,93975.75
2023-01-17T23:21:54.690Z,93987.09
2023-01-17T23:24:24.674Z,93989.00
2023-01-17T23:27:07.168Z,93991.19
2023-01-17T23:29:35.530Z,93986.00
2023-01-17T23:32:04.120Z,94000.94
2023-01-17T23:34:32.745Z,94003.63
2023-01-17T23:37:01.625Z,93997.81
2023-01-17T23:39:31.363Z,94002.97
2023-01-17T23:42:17.374Z,93996.34
2023-01-17T23:44:46.162Z,93996.00
2023-01-17T23:47:15.396Z,94000.25
2023-01-17T23:49:45.466Z,93996.13
2023-01-17T23:52:14.123Z,93992.13
2023-01-17T23:54:44.129Z,93987.41
2023-01-17T23:57:12.439Z,93980.59
2023-01-17T23:59:40.732Z,93988.31
